createdAt,value
2023-04-28T00:01:14.383Z,13.25
2023-04-28T00:03:41.395Z,13.22
2023-04-28T00:06:08.570Z,13.19
2023-04-28T00:08:35.398Z,13.17
2023-04-28T00:11:02.202Z,13.16
2023-04-28T00:13:29.011Z,13.10
2023-04-28T00:15:56.243Z,13.10
2023-04-28T00:18:23.008Z,13.07
2023-04-28T00:20:49.914Z,13.05
2023-04-28T00:23:16.643Z,13.05
2023-04-28T00:25:43.368Z,13.00
2023-04-28T00:28:10.372Z,12.98
2023-04-28T00:30:37.611Z,12.96
2023-04-28T00:33:04.497Z,12.94
2023-04-28T00:35:31.236Z,12.90
2023-04-28T00:37:57.965Z,12.84
2023-04-28T00:40:32.382Z,12.81
2023-04-28T00:42:59.086Z,12.77
2023-04-28T00:45:25.925Z,12.74
2023-04-28T00:47:52.877Z,12.72
2023-04-28T00:50:19.734Z,12.68
2023-04-28T00:52:47.828Z,12.63
2023-04-28T00:55:16.229Z,12.58
2023-04-28T00:57:43.258Z,12.57
2023-04-28T01:00:10.840Z,12.52
2023-04-28T01:02:37.892Z,12.48
2023-04-28T01:05:05.392Z,12.45
2023-04-28T01:07:32.163Z,12.41
2023-04-28T01:09:58.887Z,12.40
2023-04-28T01:12:25.833Z,12.35
2023-04-28T01:14:52.773Z,12.32
2023-04-28T01:17:19.726Z,12.32
2023-04-28T01:19:46.435Z,12.26
2023-04-28T01:22:16.212Z,12.24
2023-04-28T01:24:43.100Z,12.22
2023-04-28T01:27:10.145Z,12.19
2023-04-28T01:29:36.900Z,12.18
2023-04-28T01:32:03.931Z,12.16
2023-04-28T01:34:30.808Z,12.12
2023-04-28T01:36:57.544Z,12.09
2023-04-28T01:39:24.510Z,12.10
2023-04-28T01:41:51.391Z,12.07
2023-04-28T01:44:18.548Z,12.05
2023-04-28T01:46:45.649Z,12.03
2023-04-28T01:49:12.466Z,12.02
2023-04-28T01:51:40.477Z,11.99
2023-04-28T01:54:07.227Z,11.95
2023-04-28T01:56:33.995Z,11.91
2023-04-28T01:59:00.880Z,11.92
2023-04-28T02:01:27.644Z,11.89
2023-04-28T02:03:55.776Z,11.86
2023-04-28T02:06:22.733Z,11.86
2023-04-28T02:08:49.450Z,11.81
2023-04-28T02:11:16.210Z,11.78
2023-04-28T02:13:42.989Z,11.77
2023-04-28T02:16:09.775Z,11.76
2023-04-28T02:18:36.816Z,11.77
2023-04-28T02:21:11.415Z,11.74
2023-04-28T02:23:38.451Z,11.72
2023-04-28T02:26:05.928Z,11.71
2023-04-28T02:28:32.680Z,11.69
2023-04-28T02:31:10.360Z,11.66
2023-04-28T02:33:38.526Z,11.65
2023-04-28T02:36:06.331Z,11.63
2023-04-28T02:38:33.393Z,11.59
2023-04-28T02:41:02.028Z,11.56
2023-04-28T02:43:28.786Z,11.55
2023-04-28T02:45:55.831Z,11.54
2023-04-28T02:48:23.320Z,11.52
2023-04-28T02:50:50.409Z,11.50
2023-04-28T02:53:17.165Z,11.49
2023-04-28T02:55:43.943Z,11.46
2023-04-28T02:58:11.060Z,11.45
2023-04-28T03:00:37.849Z,11.42
2023-04-28T03:03:04.764Z,11.41
2023-04-28T03:05:31.794Z,11.40
2023-04-28T03:07:59.434Z,11.35
2023-04-28T03:10:26.404Z,11.34
2023-04-28T03:12:53.163Z,11.35
2023-04-28T03:15:19.974Z,11.35
2023-04-28T03:17:46.793Z,11.34
2023-04-28T03:20:13.722Z,11.29
2023-04-28T03:22:40.555Z,11.25
2023-04-28T03:25:07.623Z,11.25
2023-04-28T03:27:34.378Z,11.23
2023-04-28T03:30:01.077Z,11.22
2023-04-28T03:32:27.913Z,11.21
2023-04-28T03:34:54.720Z,11.15
2023-04-28T03:37:21.465Z,11.12
2023-04-28T03:39:48.205Z,11.13
2023-04-28T03:42:14.943Z,11.08
2023-04-28T03:44:41.720Z,11.06
2023-04-28T03:47:08.527Z,11.02
2023-04-28T03:49:35.284Z,11.00
2023-04-28T03:52:02.020Z,10.99
2023-04-28T03:54:28.756Z,10.96
2023-04-28T03:56:55.546Z,10.96
2023-04-28T03:59:22.339Z,10.93
2023-04-28T04:01:49.041Z,10.88
2023-04-28T04:04:16.207Z,10.89
2023-04-28T04:06:43.406Z,10.87
2023-04-28T04:09:10.260Z,10.83
2023-04-28T04:11:37.017Z,10.82
2023-04-28T04:14:03.811Z,10.83
2023-04-28T04:16:30.903Z,10.84
2023-04-28T04:18:57.690Z,10.82
2023-04-28T04:21:24.428Z,10.79
2023-04-28T04:23:51.232Z,10.79
2023-04-28T04:26:18.301Z,10.81
2023-04-28T04:28:45.141Z,10.81
2023-04-28T04:31:12.482Z,10.80
2023-04-28T04:33:39.299Z,10.80
2023-04-28T04:36:06.713Z,10.80
2023-04-28T04:38:33.581Z,10.79
2023-04-28T04:41:00.302Z,10.77
2023-04-28T04:43:27.067Z,10.79
2023-04-28T04:45:54.223Z,10.81
2023-04-28T04:48:20.994Z,10.78
2023-04-28T04:50:47.807Z,10.77
2023-04-28T04:53:16.463Z,10.80
2023-04-28T04:55:43.815Z,10.82
2023-04-28T04:58:10.549Z,10.83
2023-04-28T05:00:37.833Z,10.85
2023-04-28T05:03:06.474Z,10.89
2023-04-28T05:05:34.358Z,10.92
2023-04-28T05:08:02.400Z,10.94
2023-04-28T05:10:29.301Z,10.97
2023-04-28T05:12:56.083Z,10.99
2023-04-28T05:15:22.882Z,11.02
2023-04-28T05:17:49.851Z,11.04
2023-04-28T05:20:16.672Z,11.07
2023-04-28T05:22:43.412Z,11.10
2023-04-28T05:25:10.258Z,11.13
2023-04-28T05:27:39.510Z,11.18
2023-04-28T05:30:10.829Z,11.21
2023-04-28T05:32:38.156Z,11.26
2023-04-28T05:35:05.312Z,11.31
2023-04-28T05:37:32.088Z,11.36
2023-04-28T05:39:58.841Z,11.40
2023-04-28T05:42:25.581Z,11.43
2023-04-28T05:44:52.277Z,11.47
2023-04-28T05:47:19.082Z,11.50
2023-04-28T05:49:45.969Z,11.53
2023-04-28T05:52:12.747Z,11.57
2023-04-28T05:54:39.475Z,11.60
2023-04-28T05:57:06.249Z,11.65
2023-04-28T05:59:33.217Z,11.73
2023-04-28T06:02:00.060Z,11.78
2023-04-28T06:04:26.970Z,11.85
2023-04-28T06:06:54.177Z,11.92
2023-04-28T06:09:21.101Z,11.99
2023-04-28T06:11:47.867Z,12.08
2023-04-28T06:14:14.716Z,12.16
2023-04-28T06:16:41.672Z,12.22
2023-04-28T06:19:08.486Z,12.30
2023-04-28T06:21:35.348Z,12.36
2023-04-28T06:24:02.362Z,12.43
2023-04-28T06:26:29.327Z,12.51
2023-04-28T06:28:56.475Z,12.56
2023-04-28T06:31:23.289Z,12.64
2023-04-28T06:33:50.192Z,12.69
2023-04-28T06:36:18.188Z,12.77
2023-04-28T06:38:45.938Z,12.85
2023-04-28T06:41:12.906Z,12.92
2023-04-28T06:43:39.861Z,13.00
2023-04-28T06:46:07.017Z,13.05
2023-04-28T06:48:33.770Z,13.11
2023-04-28T06:51:00.593Z,13.16
2023-04-28T06:53:27.324Z,13.23
2023-04-28T06:55:54.135Z,13.28
2023-04-28T06:58:21.088Z,13.33
2023-04-28T07:00:48.001Z,13.38
2023-04-28T07:03:14.845Z,13.42
2023-04-28T07:05:41.700Z,13.48
2023-04-28T07:08:08.494Z,13.52
2023-04-28T07:10:35.261Z,13.57
2023-04-28T07:13:02.003Z,13.62
2023-04-28T07:15:28.977Z,13.68
2023-04-28T07:17:56.013Z,13.73
2023-04-28T07:20:22.862Z,13.79
2023-04-28T07:22:49.634Z,13.86
2023-04-28T07:25:16.531Z,13.91
2023-04-28T07:27:43.353Z,13.97
2023-04-28T07:30:25.905Z,14.03
2023-04-28T07:32:54.597Z,14.08
2023-04-28T07:35:21.432Z,14.15
2023-04-28T07:37:48.423Z,14.21
2023-04-28T07:40:16.053Z,14.27
2023-04-28T07:42:43.288Z,14.33
2023-04-28T07:45:10.970Z,14.39
2023-04-28T07:47:38.053Z,14.47
2023-04-28T07:50:06.570Z,14.52
2023-04-28T07:52:34.043Z,14.58
2023-04-28T07:55:00.869Z,14.64
2023-04-28T07:57:29.265Z,14.69
2023-04-28T07:59:56.275Z,14.77
2023-04-28T08:02:23.338Z,14.84
2023-04-28T08:04:50.368Z,14.90
2023-04-28T08:07:17.420Z,14.95
2023-04-28T08:09:47.369Z,15.02
2023-04-28T08:12:15.108Z,15.09
2023-04-28T08:14:41.922Z,15.17
2023-04-28T08:17:09.418Z,15.23
2023-04-28T08:19:36.380Z,15.27
2023-04-28T08:22:06.133Z,15.34
2023-04-28T08:24:36.648Z,15.41
2023-04-28T08:27:04.168Z,15.48
2023-04-28T08:29:32.164Z,15.56
2023-04-28T08:31:59.304Z,15.63
2023-04-28T08:34:26.506Z,15.69
2023-04-28T08:36:53.691Z,15.79
2023-04-28T08:39:23.773Z,15.86
2023-04-28T08:41:50.870Z,15.94
2023-04-28T08:44:18.677Z,16.05
2023-04-28T08:46:46.910Z,16.12
2023-04-28T08:49:20.335Z,16.23
2023-04-28T08:51:55.953Z,16.31
2023-04-28T08:54:26.903Z,16.39
2023-04-28T08:56:55.924Z,16.46
2023-04-28T08:59:22.740Z,16.52
2023-04-28T09:01:50.643Z,16.57
2023-04-28T09:04:18.488Z,16.67
2023-04-28T09:06:48.660Z,16.74
2023-04-28T09:09:41.558Z,16.80
2023-04-28T09:12:08.394Z,16.85
2023-04-28T09:14:36.971Z,16.92
2023-04-28T09:17:11.493Z,16.98
2023-04-28T09:19:39.266Z,17.02
2023-04-28T09:22:18.143Z,17.12
2023-04-28T09:24:53.321Z,17.19
2023-04-28T09:27:27.319Z,17.24
2023-04-28T09:29:54.574Z,17.26
2023-04-28T09:32:23.654Z,17.26
2023-04-28T09:34:57.199Z,17.33
2023-04-28T09:37:31.756Z,17.40
2023-04-28T09:40:07.902Z,17.46
2023-04-28T09:42:41.862Z,17.55
2023-04-28T09:45:10.122Z,17.58
2023-04-28T09:47:39.338Z,17.69
2023-04-28T09:50:09.531Z,17.81
2023-04-28T09:52:36.844Z,17.92
2023-04-28T09:55:06.275Z,18.06
2023-04-28T09:57:35.561Z,18.23
2023-04-28T10:00:06.639Z,18.39
2023-04-28T10:05:13.032Z,18.67
2023-04-28T10:07:40.655Z,18.76
2023-04-28T10:10:08.614Z,18.83
2023-04-28T10:12:38.446Z,18.93
2023-04-28T10:15:07.712Z,19.04
2023-04-28T10:17:36.942Z,19.16
2023-04-28T10:20:05.434Z,19.25
2023-04-28T10:22:57.365Z,19.30
2023-04-28T10:25:27.231Z,19.35
2023-04-28T10:27:54.600Z,19.34
2023-04-28T10:30:28.010Z,19.33
2023-04-28T10:33:25.467Z,19.40
2023-04-28T10:35:52.575Z,19.49
2023-04-28T10:38:23.553Z,19.53
2023-04-28T10:40:54.419Z,19.50
2023-04-28T10:43:32.996Z,19.53
2023-04-28T10:46:01.986Z,19.54
2023-04-28T10:48:37.970Z,19.55
2023-04-28T10:51:12.804Z,19.58
2023-04-28T10:53:46.092Z,19.60
2023-04-28T10:56:21.648Z,19.61
2023-04-28T10:58:50.803Z,19.61
2023-04-28T11:01:20.947Z,19.60
2023-04-28T11:03:47.965Z,19.59
2023-04-28T11:06:25.746Z,19.57
2023-04-28T11:08:58.117Z,19.56
2023-04-28T11:11:29.572Z,19.55
2023-04-28T11:14:21.185Z,19.51
2023-04-28T11:17:00.784Z,19.47
2023-04-28T11:19:30.340Z,19.47
2023-04-28T11:21:59.156Z,19.48
2023-04-28T11:24:30.407Z,19.46
2023-04-28T11:26:58.535Z,19.45
2023-04-28T11:29:40.795Z,19.45
2023-04-28T11:32:36.741Z,19.47
2023-04-28T11:35:04.827Z,19.46
2023-04-28T11:37:31.756Z,19.48
2023-04-28T11:39:58.530Z,19.48
2023-04-28T11:42:27.805Z,19.48
2023-04-28T11:44:55.486Z,19.51
2023-04-28T11:47:30.407Z,19.51
2023-04-28T11:49:57.952Z,19.49
2023-04-28T11:52:26.077Z,19.48
2023-04-28T11:54:58.824Z,19.45
2023-04-28T11:57:26.713Z,19.43
2023-04-28T11:59:53.491Z,19.41
2023-04-28T12:02:30.809Z,19.40
2023-04-28T12:05:06.196Z,19.38
2023-04-28T12:07:44.499Z,19.38
2023-04-28T12:10:13.838Z,19.37
2023-04-28T12:12:50.916Z,19.37
2023-04-28T12:15:21.042Z,19.35
2023-04-28T12:17:48.764Z,19.35
2023-04-28T12:20:36.699Z,19.32
2023-04-28T12:23:03.886Z,19.33
2023-04-28T12:25:30.858Z,19.33
2023-04-28T12:28:03.520Z,19.33
2023-04-28T12:30:33.359Z,19.30
2023-04-28T12:33:00.952Z,19.29
2023-04-28T12:35:28.860Z,19.29
2023-04-28T12:37:56.952Z,19.26
2023-04-28T12:40:24.580Z,19.25
2023-04-28T12:42:51.768Z,19.22
2023-04-28T12:45:18.736Z,19.18
2023-04-28T12:47:46.357Z,19.14
2023-04-28T12:50:13.144Z,19.13
2023-04-28T12:52:39.882Z,19.11
2023-04-28T12:55:07.168Z,19.09
2023-04-28T12:57:39.095Z,19.07
2023-04-28T13:00:07.725Z,19.05
2023-04-28T13:02:35.092Z,19.03
2023-04-28T13:05:03.066Z,19.02
2023-04-28T13:07:30.624Z,18.99
2023-04-28T13:09:58.285Z,18.98
2023-04-28T13:12:26.153Z,18.97
2023-04-28T13:14:52.914Z,18.96
2023-04-28T13:17:19.725Z,18.95
2023-04-28T13:19:47.517Z,18.94
2023-04-28T13:22:14.773Z,18.93
2023-04-28T13:24:41.574Z,18.93
2023-04-28T13:27:10.245Z,18.93
2023-04-28T13:29:37.877Z,18.92
2023-04-28T13:32:05.888Z,18.94
2023-04-28T13:34:33.188Z,18.93
2023-04-28T13:37:00.059Z,18.95
2023-04-28T13:39:26.841Z,18.96
2023-04-28T13:41:53.607Z,18.97
2023-04-28T13:44:21.116Z,19.00
2023-04-28T13:46:48.539Z,19.02
2023-04-28T13:49:15.317Z,19.04
2023-04-28T13:51:42.781Z,19.07
2023-04-28T13:54:11.417Z,19.09
2023-04-28T13:56:38.625Z,19.11
2023-04-28T13:59:05.471Z,19.14
2023-04-28T14:01:32.248Z,19.16
2023-04-28T14:04:01.893Z,19.17
2023-04-28T14:06:28.930Z,19.19
2023-04-28T14:08:55.735Z,19.21
2023-04-28T14:11:22.737Z,19.21
2023-04-28T14:13:49.493Z,19.22
2023-04-28T14:16:16.583Z,19.22
2023-04-28T14:18:43.459Z,19.23
2023-04-28T14:21:10.357Z,19.23
2023-04-28T14:23:37.878Z,19.23
2023-04-28T14:26:04.934Z,19.24
2023-04-28T14:28:31.685Z,19.23
2023-04-28T14:30:58.475Z,19.24
2023-04-28T14:33:25.242Z,19.23
2023-04-28T14:35:51.996Z,19.22
2023-04-28T14:38:18.976Z,19.21
2023-04-28T14:40:45.821Z,19.20
2023-04-28T14:43:14.011Z,19.22
2023-04-28T14:45:41.164Z,19.21
2023-04-28T14:48:10.515Z,19.20
2023-04-28T14:50:37.719Z,19.20
2023-04-28T14:53:07.642Z,19.20
2023-04-28T14:55:34.873Z,19.20
2023-04-28T14:58:01.900Z,19.19
2023-04-28T15:00:29.585Z,19.19
2023-04-28T15:02:56.694Z,19.19
2023-04-28T15:05:23.548Z,19.18
2023-04-28T15:07:50.666Z,19.19
2023-04-28T15:10:17.848Z,19.18
2023-04-28T15:12:44.591Z,19.17
2023-04-28T15:15:11.937Z,19.16
2023-04-28T15:17:39.046Z,19.13
2023-04-28T15:20:07.374Z,19.13
2023-04-28T15:22:34.255Z,19.11
2023-04-28T15:25:00.996Z,19.06
2023-04-28T15:27:27.710Z,19.00
2023-04-28T15:29:54.476Z,18.96
2023-04-28T15:32:21.596Z,18.91
2023-04-28T15:34:49.115Z,18.88
2023-04-28T15:37:38.006Z,18.85
2023-04-28T15:40:10.360Z,18.81
2023-04-28T15:42:38.010Z,18.79
2023-04-28T15:45:05.909Z,18.77
2023-04-28T15:47:33.124Z,18.75
2023-04-28T15:50:00.055Z,18.72
2023-04-28T15:52:27.493Z,18.70
2023-04-28T15:54:57.292Z,18.68
2023-04-28T15:57:24.213Z,18.65
2023-04-28T15:59:51.837Z,18.63
2023-04-28T16:02:19.103Z,18.62
2023-04-28T16:04:47.049Z,18.60
2023-04-28T16:07:14.224Z,18.58
2023-04-28T16:09:41.144Z,18.57
2023-04-28T16:12:08.636Z,18.57
2023-04-28T16:14:36.457Z,18.55
2023-04-28T16:17:03.583Z,18.55
2023-04-28T16:19:30.467Z,18.56
2023-04-28T16:21:58.052Z,18.56
2023-04-28T16:24:26.138Z,18.56
2023-04-28T16:26:53.289Z,18.56
2023-04-28T16:29:20.070Z,18.59
2023-04-28T16:31:46.857Z,18.59
2023-04-28T16:34:13.693Z,18.58
2023-04-28T16:36:41.334Z,18.59
2023-04-28T16:39:09.469Z,18.61
2023-04-28T16:41:37.425Z,18.59
2023-04-28T16:44:04.176Z,18.58
2023-04-28T16:46:31.122Z,18.56
2023-04-28T16:48:57.944Z,18.54
2023-04-28T16:51:24.739Z,18.52
2023-04-28T16:53:51.502Z,18.49
2023-04-28T16:56:18.248Z,18.49
2023-04-28T16:58:45.088Z,18.48
2023-04-28T17:01:12.114Z,18.46
2023-04-28T17:03:42.118Z,18.46
2023-04-28T17:06:09.167Z,18.43
2023-04-28T17:08:36.029Z,18.41
2023-04-28T17:11:04.661Z,18.38
2023-04-28T17:13:32.995Z,18.33
2023-04-28T17:16:00.415Z,18.31
2023-04-28T17:18:27.701Z,18.28
2023-04-28T17:20:54.885Z,18.27
2023-04-28T17:23:21.891Z,18.25
2023-04-28T17:25:48.677Z,18.22
2023-04-28T17:28:15.664Z,18.19
2023-04-28T17:30:46.883Z,18.18
2023-04-28T17:33:14.409Z,18.14
2023-04-28T17:35:41.478Z,18.12
2023-04-28T17:38:08.285Z,18.10
2023-04-28T17:40:35.038Z,18.08
2023-04-28T17:43:02.733Z,18.05
2023-04-28T17:45:30.148Z,18.01
2023-04-28T17:48:00.315Z,17.99
2023-04-28T17:50:27.212Z,17.97
2023-04-28T17:52:54.348Z,17.95
2023-04-28T17:55:21.197Z,17.92
2023-04-28T17:57:48.256Z,17.90
2023-04-28T18:00:15.469Z,17.87
2023-04-28T18:02:42.306Z,17.86
2023-04-28T18:05:09.488Z,17.82
2023-04-28T18:07:36.437Z,17.79
2023-04-28T18:10:03.534Z,17.77
2023-04-28T18:12:30.402Z,17.75
2023-04-28T18:14:58.389Z,17.71
2023-04-28T18:17:26.343Z,17.65
2023-04-28T18:19:57.199Z,17.63
2023-04-28T18:22:24.653Z,17.60
2023-04-28T18:24:51.962Z,17.59
2023-04-28T18:27:19.592Z,17.57
2023-04-28T18:29:46.580Z,17.55
2023-04-28T18:32:15.076Z,17.46
2023-04-28T18:34:43.816Z,17.47
2023-04-28T18:37:11.094Z,17.43
2023-04-28T18:39:38.186Z,17.41
2023-04-28T18:42:06.014Z,17.38
2023-04-28T18:44:33.161Z,17.37
2023-04-28T18:47:00.241Z,17.34
2023-04-28T18:49:28.032Z,17.29
2023-04-28T18:51:55.671Z,17.25
2023-04-28T18:54:22.850Z,17.22
2023-04-28T18:56:53.131Z,17.19
2023-04-28T18:59:20.317Z,17.14
2023-04-28T19:01:48.487Z,17.09
2023-04-28T19:04:16.353Z,17.08
2023-04-28T19:06:44.339Z,17.02
2023-04-28T19:09:11.542Z,16.99
2023-04-28T19:11:38.850Z,16.97
2023-04-28T19:14:06.688Z,16.94
2023-04-28T19:16:33.848Z,16.92
2023-04-28T19:19:01.117Z,16.86
2023-04-28T19:21:29.700Z,16.83
2023-04-28T19:23:57.439Z,16.82
2023-04-28T19:26:24.786Z,16.80
2023-04-28T19:28:52.549Z,16.76
2023-04-28T19:31:20.059Z,16.76
2023-04-28T19:33:47.484Z,16.72
2023-04-28T19:36:14.902Z,16.73
2023-04-28T19:38:42.204Z,16.69
2023-04-28T19:41:09.631Z,16.66
2023-04-28T19:43:37.385Z,16.66
2023-04-28T19:46:06.062Z,16.64
2023-04-28T19:48:33.879Z,16.64
2023-04-28T19:51:01.203Z,16.60
2023-04-28T19:53:28.838Z,16.59
2023-04-28T19:55:57.645Z,16.57
2023-04-28T19:58:24.985Z,16.55
2023-04-28T20:00:54.012Z,16.53
2023-04-28T20:03:21.299Z,16.53
2023-04-28T20:05:57.505Z,16.50
2023-04-28T20:08:25.847Z,16.50
2023-04-28T20:10:54.395Z,16.47
2023-04-28T20:13:21.619Z,16.44
2023-04-28T20:15:48.970Z,16.44
2023-04-28T20:18:15.872Z,16.43
2023-04-28T20:20:44.011Z,16.42
2023-04-28T20:23:10.988Z,16.38
2023-04-28T20:25:38.009Z,16.36
2023-04-28T20:28:05.762Z,16.34
2023-04-28T20:30:33.210Z,16.32
2023-04-28T20:33:00.330Z,16.31
2023-04-28T20:35:27.376Z,16.31
2023-04-28T20:37:54.256Z,16.30
2023-04-28T20:40:21.222Z,16.28
2023-04-28T20:42:48.201Z,16.26
2023-04-28T20:45:15.191Z,16.23
2023-04-28T20:47:42.543Z,16.23
2023-04-28T20:50:12.431Z,16.21
2023-04-28T20:52:39.323Z,16.20
2023-04-28T20:55:06.450Z,16.20
2023-04-28T20:57:33.185Z,16.18
2023-04-28T20:59:59.933Z,16.17
2023-04-28T21:02:27.365Z,16.15
2023-04-28T21:04:54.224Z,16.15
2023-04-28T21:07:21.043Z,16.11
2023-04-28T21:09:47.866Z,16.10
2023-04-28T21:12:14.724Z,16.09
2023-04-28T21:14:41.526Z,16.08
2023-04-28T21:17:08.854Z,16.05
2023-04-28T21:19:36.065Z,16.02
2023-04-28T21:22:04.175Z,16.00
2023-04-28T21:24:31.038Z,15.99
2023-04-28T21:26:59.634Z,15.98
2023-04-28T21:29:27.622Z,15.95
2023-04-28T21:31:54.481Z,15.94
2023-04-28T21:34:21.233Z,15.94
2023-04-28T21:36:48.559Z,15.92
2023-04-28T21:39:15.526Z,15.91
2023-04-28T21:41:42.752Z,15.88
2023-04-28T21:44:09.543Z,15.87
2023-04-28T21:46:36.603Z,15.87
2023-04-28T21:49:03.413Z,15.86
2023-04-28T21:51:30.265Z,15.84
2023-04-28T21:53:57.034Z,15.79
2023-04-28T21:56:23.785Z,15.81
2023-04-28T21:58:50.568Z,15.77
2023-04-28T22:01:18.446Z,15.76
2023-04-28T22:03:46.665Z,15.74
2023-04-28T22:06:13.742Z,15.72
2023-04-28T22:08:40.545Z,15.68
2023-04-28T22:11:08.089Z,15.66
2023-04-28T22:13:35.027Z,15.63
2023-04-28T22:16:02.094Z,15.62
2023-04-28T22:18:29.330Z,15.57
2023-04-28T22:20:56.297Z,15.56
2023-04-28T22:23:23.120Z,15.55
2023-04-28T22:25:50.316Z,15.55
2023-04-28T22:28:17.322Z,15.53
2023-04-28T22:30:46.370Z,15.52
2023-04-28T22:33:13.174Z,15.50
2023-04-28T22:35:40.244Z,15.49
2023-04-28T22:38:06.951Z,15.49
2023-04-28T22:40:33.744Z,15.46
2023-04-28T22:43:00.509Z,15.46
2023-04-28T22:45:27.324Z,15.45
2023-04-28T22:47:54.274Z,15.44
2023-04-28T22:50:21.165Z,15.42
2023-04-28T22:52:48.113Z,15.44
2023-04-28T22:55:15.211Z,15.42
2023-04-28T22:57:41.880Z,15.42
2023-04-28T23:00:09.170Z,15.40
2023-04-28T23:02:36.332Z,15.38
2023-04-28T23:05:04.163Z,15.36
2023-04-28T23:07:31.027Z,15.34
2023-04-28T23:09:57.772Z,15.30
2023-04-28T23:12:24.546Z,15.28
2023-04-28T23:14:51.366Z,15.28
2023-04-28T23:17:18.255Z,15.27
2023-04-28T23:19:44.988Z,15.24
2023-04-28T23:22:11.729Z,15.21
2023-04-28T23:24:40.062Z,15.21
2023-04-28T23:27:07.028Z,15.20
2023-04-28T23:29:35.213Z,15.18
2023-04-28T23:32:02.858Z,15.18
2023-04-28T23:34:31.251Z,15.17
2023-04-28T23:36:58.634Z,15.16
2023-04-28T23:39:26.082Z,15.15
2023-04-28T23:41:52.970Z,15.12
2023-04-28T23:44:19.724Z,15.09
2023-04-28T23:46:47.057Z,15.08
2023-04-28T23:49:13.790Z,15.05
2023-04-28T23:51:41.061Z,15.04
2023-04-28T23:54:09.403Z,15.05
2023-04-28T23:56:36.283Z,15.03
2023-04-28T23:59:03.269Z,15.02
